Time;durP1;ratioP1;P1;durP2;ratioP2;P2;SDS_P1;SDS_P2;PMS_P1;PMS_P2;Temp;Humidity;BMP_temperature;BMP_pressure;BME280_temperature;BME280_humidity;BME280_pressure;Samples;Min_cycle;Max_cycle;Signal;HPM_P1;HPM_P2
2022/08/26 00:00:41;;;;;;;;;;;26.40;49.70;;;;;;5064680;28;20360;-75
2022/08/26 00:03:08;;;;;;;;;;;26.30;49.60;;;;;;5061268;28;19994;-75
2022/08/26 00:05:35;;;;;;;;;;;26.30;49.70;;;;;;5058129;28;19950;-76
2022/08/26 00:08:01;;;;;;;;;;;26.30;49.80;;;;;;5058530;28;19933;-76
2022/08/26 00:10:28;;;;;;;;;;;26.20;49.70;;;;;;5061027;28;19936;-76
2022/08/26 00:12:54;;;;;;;;;;;26.20;49.80;;;;;;5061716;28;19928;-76
2022/08/26 00:15:23;;;;;;;;;;;26.20;49.90;;;;;;5061909;28;19936;-77
2022/08/26 00:17:50;;;;;;;;;;;26.10;49.80;;;;;;5060024;28;19938;-76
2022/08/26 00:20:18;;;;;;;;;;;26.10;50.00;;;;;;5060549;28;20372;-77
2022/08/26 00:22:45;;;;;;;;;;;26.10;50.00;;;;;;5060927;28;20038;-76
2022/08/26 00:25:11;;;;;;;;;;;26.00;50.20;;;;;;5059448;28;19936;-76
2022/08/26 00:27:38;;;;;;;;;;;26.00;50.20;;;;;;5060917;28;20463;-77
2022/08/26 00:30:07;;;;;;;;;;;26.00;50.30;;;;;;5061998;28;19925;-76
2022/08/26 00:32:36;;;;;;;;;;;25.90;50.10;;;;;;5060664;28;19944;-77
2022/08/26 00:35:03;;;;;;;;;;;25.90;50.40;;;;;;5059804;28;20420;-76
2022/08/26 00:37:30;;;;;;;;;;;25.90;50.50;;;;;;5062239;28;19928;-76
2022/08/26 00:39:57;;;;;;;;;;;25.80;50.50;;;;;;5060559;28;19928;-76
2022/08/26 00:42:24;;;;;;;;;;;25.80;50.60;;;;;;5059120;28;20413;-77
2022/08/26 00:44:50;;;;;;;;;;;25.70;50.60;;;;;;5060104;28;19929;-77
2022/08/26 00:47:21;;;;;;;;;;;25.80;50.60;;;;;;5058999;28;19952;-76
2022/08/26 00:49:50;;;;;;;;;;;25.70;50.60;;;;;;5060845;28;19978;-75
2022/08/26 00:52:19;;;;;;;;;;;25.70;50.60;;;;;;5062868;28;19972;-76
2022/08/26 00:54:49;;;;;;;;;;;25.60;50.80;;;;;;5061927;28;19928;-76
2022/08/26 00:57:17;;;;;;;;;;;25.60;50.70;;;;;;5062563;28;19974;-76
2022/08/26 00:59:44;;;;;;;;;;;25.50;50.70;;;;;;5063651;28;20291;-76
2022/08/26 01:02:11;;;;;;;;;;;25.50;50.90;;;;;;5053974;28;20474;-77
2022/08/26 01:04:39;;;;;;;;;;;25.50;50.90;;;;;;5060737;28;19932;-77
2022/08/26 01:07:07;;;;;;;;;;;25.50;50.90;;;;;;5060039;28;19935;-77
2022/08/26 01:09:33;;;;;;;;;;;25.40;50.90;;;;;;5059607;28;19939;-76
2022/08/26 01:12:01;;;;;;;;;;;25.40;51.10;;;;;;5058233;28;19935;-76
2022/08/26 01:14:30;;;;;;;;;;;25.40;51.10;;;;;;5062722;28;19932;-77
2022/08/26 01:16:57;;;;;;;;;;;25.30;51.10;;;;;;5059520;28;19928;-76
2022/08/26 01:19:26;;;;;;;;;;;25.30;51.20;;;;;;5057731;28;20414;-76
2022/08/26 01:21:56;;;;;;;;;;;25.30;51.20;;;;;;5060329;28;20203;-76
2022/08/26 01:24:26;;;;;;;;;;;25.30;51.30;;;;;;5059028;28;19935;-77
2022/08/26 01:26:55;;;;;;;;;;;25.20;51.30;;;;;;5059477;28;19928;-76
2022/08/26 01:29:22;;;;;;;;;;;25.20;51.50;;;;;;5054735;28;19929;-77
2022/08/26 01:31:51;;;;;;;;;;;25.20;51.50;;;;;;5061414;28;20478;-76
2022/08/26 01:34:18;;;;;;;;;;;25.10;51.50;;;;;;5062943;28;19932;-75
2022/08/26 01:36:45;;;;;;;;;;;25.10;51.40;;;;;;5061292;28;19955;-76
2022/08/26 01:39:11;;;;;;;;;;;25.10;51.50;;;;;;5058317;28;19939;-76
2022/08/26 01:41:39;;;;;;;;;;;25.10;51.50;;;;;;5062015;28;19929;-76
2022/08/26 01:44:07;;;;;;;;;;;25.00;51.60;;;;;;5057391;28;19928;-76
2022/08/26 01:46:34;;;;;;;;;;;25.00;51.80;;;;;;5060173;28;19932;-76
2022/08/26 01:49:02;;;;;;;;;;;25.00;51.80;;;;;;5057877;28;19939;-75
2022/08/26 01:51:30;;;;;;;;;;;24.90;51.80;;;;;;5062170;28;19935;-76
2022/08/26 01:53:57;;;;;;;;;;;24.90;52.00;;;;;;5059287;28;19989;-76
2022/08/26 01:56:24;;;;;;;;;;;24.90;52.10;;;;;;5061136;28;19939;-77
2022/08/26 01:58:53;;;;;;;;;;;24.90;52.10;;;;;;5057115;28;19928;-77
2022/08/26 02:01:21;;;;;;;;;;;24.80;52.10;;;;;;5059933;28;19929;-77
2022/08/26 02:03:51;;;;;;;;;;;24.80;52.20;;;;;;5062264;28;19932;-76
2022/08/26 02:06:18;;;;;;;;;;;24.80;52.20;;;;;;5059644;28;19928;-77
2022/08/26 02:08:47;;;;;;;;;;;24.70;52.30;;;;;;5058525;28;19986;-76
2022/08/26 02:11:14;;;;;;;;;;;24.70;52.30;;;;;;5059733;28;19929;-76
2022/08/26 02:13:43;;;;;;;;;;;24.70;52.40;;;;;;5059292;28;19928;-77
2022/08/26 02:16:11;;;;;;;;;;;24.70;52.40;;;;;;5055986;28;20011;-76
2022/08/26 02:18:40;;;;;;;;;;;24.70;52.60;;;;;;5053627;28;19936;-75
2022/08/26 02:21:07;;;;;;;;;;;24.60;52.60;;;;;;5057341;28;19932;-76
2022/08/26 02:23:34;;;;;;;;;;;24.60;52.70;;;;;;5054409;28;19932;-76
2022/08/26 02:26:03;;;;;;;;;;;24.50;52.70;;;;;;5058233;28;20015;-76
2022/08/26 02:28:33;;;;;;;;;;;24.50;53.30;;;;;;5054023;28;19986;-77
2022/08/26 02:30:59;;;;;;;;;;;24.50;52.80;;;;;;5059670;28;20333;-76
2022/08/26 02:33:29;;;;;;;;;;;24.50;52.90;;;;;;5057438;28;19998;-76
2022/08/26 02:35:55;;;;;;;;;;;24.50;52.90;;;;;;5055648;28;20018;-76
2022/08/26 02:38:22;;;;;;;;;;;24.40;52.80;;;;;;5058379;28;19932;-76
2022/08/26 02:40:48;;;;;;;;;;;24.40;53.00;;;;;;5054284;28;20408;-76
2022/08/26 02:43:15;;;;;;;;;;;24.30;52.90;;;;;;5057018;28;19951;-76
2022/08/26 02:45:42;;;;;;;;;;;24.30;53.00;;;;;;5058013;28;19931;-76
2022/08/26 02:48:10;;;;;;;;;;;24.30;52.80;;;;;;5055476;28;19944;-76
2022/08/26 02:50:39;;;;;;;;;;;24.30;54.60;;;;;;5058653;28;19940;-76
2022/08/26 02:53:05;;;;;;;;;;;24.30;53.20;;;;;;5061576;28;19929;-76
2022/08/26 02:55:32;;;;;;;;;;;24.30;53.30;;;;;;5056450;28;19928;-75
2022/08/26 02:58:00;;;;;;;;;;;24.20;53.20;;;;;;5057852;28;19928;-76
2022/08/26 03:00:27;;;;;;;;;;;24.20;53.30;;;;;;5055202;28;19928;-76
2022/08/26 03:02:53;;;;;;;;;;;24.10;53.40;;;;;;5057480;28;20391;-76
2022/08/26 03:05:21;;;;;;;;;;;24.20;53.50;;;;;;5054366;28;19936;-75
2022/08/26 03:07:49;;;;;;;;;;;24.10;54.20;;;;;;5056411;28;20021;-77
2022/08/26 03:10:15;;;;;;;;;;;24.10;53.60;;;;;;5056103;28;20489;-76
2022/08/26 03:12:43;;;;;;;;;;;24.00;53.60;;;;;;5058636;28;20323;-76
2022/08/26 03:15:10;;;;;;;;;;;24.00;53.70;;;;;;5058767;28;20759;-76
2022/08/26 03:17:36;;;;;;;;;;;24.00;53.80;;;;;;5057495;28;19932;-76
2022/08/26 03:20:07;;;;;;;;;;;24.00;53.80;;;;;;5060183;28;19933;-77
2022/08/26 03:22:33;;;;;;;;;;;24.00;53.90;;;;;;5062286;28;19929;-75
2022/08/26 03:25:01;;;;;;;;;;;23.90;54.00;;;;;;5061241;28;19932;-76
2022/08/26 03:27:28;;;;;;;;;;;23.90;54.00;;;;;;5061984;28;19933;-76
2022/08/26 03:32:39;;;;;;;;;;;23.90;54.70;;;;;;5061012;28;19932;-76
2022/08/26 03:35:06;;;;;;;;;;;23.80;54.00;;;;;;5061961;28;19933;-76
2022/08/26 03:37:32;;;;;;;;;;;23.80;54.20;;;;;;5062474;28;19935;-76
2022/08/26 03:39:59;;;;;;;;;;;23.80;54.30;;;;;;5061886;28;20327;-76
2022/08/26 03:42:28;;;;;;;;;;;23.80;54.40;;;;;;5063277;28;19925;-76
2022/08/26 03:44:54;;;;;;;;;;;23.80;54.40;;;;;;5064281;28;19937;-76
2022/08/26 03:47:21;;;;;;;;;;;23.70;54.50;;;;;;5058050;28;19936;-76
2022/08/26 03:49:47;;;;;;;;;;;23.70;54.40;;;;;;5059980;28;19930;-75
2022/08/26 03:52:14;;;;;;;;;;;23.70;54.50;;;;;;5063286;28;19936;-75
2022/08/26 03:54:41;;;;;;;;;;;23.70;54.50;;;;;;5062334;28;19955;-76
2022/08/26 03:57:07;;;;;;;;;;;23.60;54.60;;;;;;5061398;28;20305;-76
2022/08/26 03:59:35;;;;;;;;;;;23.60;54.70;;;;;;5062421;28;19933;-75
2022/08/26 04:02:02;;;;;;;;;;;23.60;54.70;;;;;;5060049;28;19971;-75
2022/08/26 04:04:28;;;;;;;;;;;23.60;54.70;;;;;;5056919;28;19925;-75
2022/08/26 04:06:56;;;;;;;;;;;23.50;54.80;;;;;;5058489;28;19932;-76
2022/08/26 04:09:22;;;;;;;;;;;23.60;55.00;;;;;;5059427;28;19936;-75
2022/08/26 04:11:49;;;;;;;;;;;23.50;54.50;;;;;;5065748;28;19925;-76
2022/08/26 04:14:17;;;;;;;;;;;23.50;55.10;;;;;;5064940;28;19925;-76
2022/08/26 04:16:45;;;;;;;;;;;23.50;55.10;;;;;;5059767;28;20020;-75
2022/08/26 04:19:13;;;;;;;;;;;23.40;55.70;;;;;;5058341;28;19936;-75
2022/08/26 04:21:40;;;;;;;;;;;23.40;55.20;;;;;;5057847;28;20658;-76
2022/08/26 04:24:08;;;;;;;;;;;23.40;55.30;;;;;;5057537;28;19941;-75
2022/08/26 04:26:36;;;;;;;;;;;23.40;55.30;;;;;;5053084;28;20579;-76
2022/08/26 04:29:04;;;;;;;;;;;23.30;55.30;;;;;;5060317;28;20231;-76
2022/08/26 04:31:31;;;;;;;;;;;23.40;55.40;;;;;;5057576;28;19928;-75
2022/08/26 04:33:59;;;;;;;;;;;23.30;55.30;;;;;;5059104;28;20751;-76
2022/08/26 04:36:25;;;;;;;;;;;23.30;55.40;;;;;;5057063;28;20184;-76
2022/08/26 04:38:52;;;;;;;;;;;23.30;55.40;;;;;;5056598;28;19933;-76
2022/08/26 04:41:19;;;;;;;;;;;23.30;55.40;;;;;;5059571;28;19929;-75
2022/08/26 04:43:46;;;;;;;;;;;23.30;55.50;;;;;;5061396;28;19935;-76
2022/08/26 04:46:13;;;;;;;;;;;23.20;55.60;;;;;;5059108;28;19929;-75
2022/08/26 04:48:40;;;;;;;;;;;23.20;55.60;;;;;;5057050;28;20463;-75
2022/08/26 04:51:08;;;;;;;;;;;23.20;55.60;;;;;;5058396;28;20028;-76
2022/08/26 04:53:35;;;;;;;;;;;23.20;55.60;;;;;;5059723;28;20019;-75
2022/08/26 04:56:02;;;;;;;;;;;23.10;55.70;;;;;;5057324;28;19950;-75
2022/08/26 04:58:28;;;;;;;;;;;23.10;55.80;;;;;;5059241;28;19952;-75
2022/08/26 05:00:56;;;;;;;;;;;23.10;55.80;;;;;;5059000;28;19932;-75
2022/08/26 05:03:23;;;;;;;;;;;23.00;55.70;;;;;;5057548;28;20019;-76
2022/08/26 05:05:50;;;;;;;;;;;22.80;57.80;;;;;;5060192;28;20026;-76
2022/08/26 05:08:19;;;;;;;;;;;22.40;59.10;;;;;;5060570;28;19929;-76
2022/08/26 05:10:48;;;;;;;;;;;22.30;59.20;;;;;;5061013;28;20320;-76
2022/08/26 05:13:15;;;;;;;;;;;22.20;59.50;;;;;;5060852;28;19932;-76
2022/08/26 05:15:42;;;;;;;;;;;22.20;59.60;;;;;;5056218;28;19962;-76
2022/08/26 05:18:09;;;;;;;;;;;22.30;59.60;;;;;;5059255;28;19935;-76
2022/08/26 05:20:38;;;;;;;;;;;22.30;59.30;;;;;;5059759;28;19928;-76
2022/08/26 05:23:05;;;;;;;;;;;22.30;59.00;;;;;;5059806;28;19939;-76
2022/08/26 05:25:36;;;;;;;;;;;22.30;58.90;;;;;;5055716;28;19929;-76
2022/08/26 05:28:03;;;;;;;;;;;22.40;58.80;;;;;;5057468;28;19940;-76
2022/08/26 05:30:30;;;;;;;;;;;22.40;58.50;;;;;;5056338;28;19940;-76
2022/08/26 05:32:56;;;;;;;;;;;22.40;58.50;;;;;;5055452;28;19963;-76
2022/08/26 05:35:23;;;;;;;;;;;22.40;58.50;;;;;;5057324;28;19936;-76
2022/08/26 05:37:50;;;;;;;;;;;22.40;58.60;;;;;;5057436;28;19929;-76
2022/08/26 05:40:17;;;;;;;;;;;22.40;58.60;;;;;;5060040;28;19936;-75
2022/08/26 05:42:46;;;;;;;;;;;22.40;58.50;;;;;;5058175;28;19972;-75
2022/08/26 05:45:12;;;;;;;;;;;22.40;58.50;;;;;;5059160;28;19976;-75
2022/08/26 05:47:39;;;;;;;;;;;22.40;58.40;;;;;;5062169;28;19932;-75
2022/08/26 05:50:06;;;;;;;;;;;22.30;58.40;;;;;;5055407;28;19959;-75
2022/08/26 05:52:33;;;;;;;;;;;22.40;58.40;;;;;;5062455;28;19928;-75
2022/08/26 05:54:59;;;;;;;;;;;22.30;58.30;;;;;;5059680;28;20791;-75
2022/08/26 05:57:27;;;;;;;;;;;22.40;58.40;;;;;;5060973;28;19929;-75
2022/08/26 05:59:55;;;;;;;;;;;22.30;58.40;;;;;;5061779;28;19929;-76
2022/08/26 06:02:22;;;;;;;;;;;22.30;58.30;;;;;;5061813;28;20015;-75
2022/08/26 06:04:49;;;;;;;;;;;22.30;58.50;;;;;;5059786;28;19951;-75
2022/08/26 06:07:15;;;;;;;;;;;22.30;58.40;;;;;;5058548;28;19943;-75
2022/08/26 06:09:42;;;;;;;;;;;22.40;58.50;;;;;;5053914;28;20687;-75
2022/08/26 06:12:09;;;;;;;;;;;22.30;58.40;;;;;;5060378;28;19929;-76
2022/08/26 06:14:36;;;;;;;;;;;22.30;58.40;;;;;;5060271;28;19929;-76
2022/08/26 06:17:04;;;;;;;;;;;22.30;58.30;;;;;;5057424;28;19932;-76
2022/08/26 06:19:31;;;;;;;;;;;22.40;58.20;;;;;;5060901;28;20407;-76
2022/08/26 06:25:36;;;;;;;;;;;22.30;58.10;;;;;;5061165;28;20292;-75
2022/08/26 06:27:28;;;;;;;;;;;22.30;58.10;;;;;;5056230;28;19985;-75
2022/08/26 06:29:54;;;;;;;;;;;22.40;58.10;;;;;;5058506;28;19937;-75
2022/08/26 06:32:22;;;;;;;;;;;22.30;58.00;;;;;;5061452;28;20320;-75
2022/08/26 06:34:49;;;;;;;;;;;22.40;58.00;;;;;;5059471;28;19928;-75
2022/08/26 06:37:16;;;;;;;;;;;22.30;57.90;;;;;;5057487;28;20025;-75
2022/08/26 06:39:42;;;;;;;;;;;22.40;58.10;;;;;;5059396;28;19932;-76
2022/08/26 06:42:09;;;;;;;;;;;22.40;58.00;;;;;;5059013;28;19928;-76
2022/08/26 06:44:36;;;;;;;;;;;22.40;57.90;;;;;;5059161;28;20069;-75
2022/08/26 06:47:02;;;;;;;;;;;22.40;57.80;;;;;;5056142;28;19936;-75
2022/08/26 06:49:30;;;;;;;;;;;22.40;57.80;;;;;;5061232;28;19928;-76
2022/08/26 06:51:57;;;;;;;;;;;22.40;57.70;;;;;;5056118;28;19935;-75
2022/08/26 06:54:24;;;;;;;;;;;22.40;57.70;;;;;;5057175;28;19965;-74
2022/08/26 06:56:51;;;;;;;;;;;22.50;57.80;;;;;;5059701;28;19935;-76
2022/08/26 06:59:17;;;;;;;;;;;22.50;57.80;;;;;;5054753;28;19936;-76
2022/08/26 07:01:44;;;;;;;;;;;22.50;57.70;;;;;;5058674;28;19928;-74
2022/08/26 07:04:11;;;;;;;;;;;22.50;57.70;;;;;;5054168;28;19972;-76
2022/08/26 07:06:40;;;;;;;;;;;22.50;57.70;;;;;;5059747;28;20690;-76
2022/08/26 07:09:09;;;;;;;;;;;22.50;57.70;;;;;;5058877;28;19935;-76
2022/08/26 07:11:35;;;;;;;;;;;22.50;57.50;;;;;;5060016;28;19932;-75
2022/08/26 07:14:03;;;;;;;;;;;22.50;57.50;;;;;;5051476;28;19959;-75
2022/08/26 07:16:29;;;;;;;;;;;22.50;57.60;;;;;;5057485;28;19979;-75
2022/08/26 07:18:56;;;;;;;;;;;22.50;57.50;;;;;;5051737;28;20559;-75
2022/08/26 07:21:23;;;;;;;;;;;22.50;57.50;;;;;;5060101;28;19939;-76
2022/08/26 07:23:51;;;;;;;;;;;22.50;57.50;;;;;;5060103;28;20685;-76
2022/08/26 07:26:21;;;;;;;;;;;22.60;57.50;;;;;;5060670;28;19936;-75
2022/08/26 07:28:49;;;;;;;;;;;22.60;57.60;;;;;;5054849;28;19935;-76
2022/08/26 07:31:16;;;;;;;;;;;22.60;57.40;;;;;;5058150;28;20024;-76
2022/08/26 07:33:43;;;;;;;;;;;22.60;57.40;;;;;;5057286;28;20011;-75
2022/08/26 07:36:11;;;;;;;;;;;22.70;57.50;;;;;;5060511;28;19930;-75
2022/08/26 07:38:38;;;;;;;;;;;22.60;57.40;;;;;;5056701;28;19929;-75
2022/08/26 07:41:07;;;;;;;;;;;22.70;57.50;;;;;;5056052;28;19955;-76
2022/08/26 07:43:34;;;;;;;;;;;22.70;58.00;;;;;;5059364;28;20412;-76
2022/08/26 07:46:01;;;;;;;;;;;22.70;57.40;;;;;;5059376;28;19928;-76
2022/08/26 07:48:27;;;;;;;;;;;22.70;57.30;;;;;;5056500;28;19928;-75
2022/08/26 07:50:54;;;;;;;;;;;22.80;57.30;;;;;;5060715;28;19932;-76
2022/08/26 07:53:21;;;;;;;;;;;22.80;57.40;;;;;;5060391;28;19932;-76
2022/08/26 07:55:48;;;;;;;;;;;22.80;57.50;;;;;;5058743;28;19929;-76
2022/08/26 07:58:16;;;;;;;;;;;22.80;57.50;;;;;;5060939;28;19932;-76
2022/08/26 08:00:43;;;;;;;;;;;22.80;57.70;;;;;;5060503;28;19936;-75
2022/08/26 08:03:10;;;;;;;;;;;22.90;57.60;;;;;;5058510;28;19937;-76
2022/08/26 08:05:36;;;;;;;;;;;22.90;57.60;;;;;;5060336;28;19932;-77
2022/08/26 08:08:04;;;;;;;;;;;22.90;57.50;;;;;;5056276;28;19940;-76
2022/08/26 08:10:31;;;;;;;;;;;22.90;57.40;;;;;;5059070;28;20500;-75
2022/08/26 08:12:58;;;;;;;;;;;23.00;57.50;;;;;;5062858;28;19933;-75
2022/08/26 08:15:27;;;;;;;;;;;23.00;57.50;;;;;;5054753;28;20133;-76
2022/08/26 08:17:54;;;;;;;;;;;23.00;57.40;;;;;;5061554;28;19932;-75
2022/08/26 08:20:21;;;;;;;;;;;23.00;57.40;;;;;;5054654;28;20404;-75
2022/08/26 08:22:48;;;;;;;;;;;23.10;57.40;;;;;;5059247;28;20023;-76
2022/08/26 08:25:15;;;;;;;;;;;23.10;57.50;;;;;;5062388;28;19928;-76
2022/08/26 08:27:43;;;;;;;;;;;23.20;57.40;;;;;;5063140;28;20285;-75
2022/08/26 08:30:10;;;;;;;;;;;23.20;57.40;;;;;;5064572;28;19929;-76
2022/08/26 08:32:38;;;;;;;;;;;23.30;57.50;;;;;;5054464;28;19929;-76
2022/08/26 08:35:06;;;;;;;;;;;23.30;57.40;;;;;;5054552;28;19936;-75
2022/08/26 08:37:33;;;;;;;;;;;23.30;57.40;;;;;;5062001;28;19929;-76
2022/08/26 08:39:59;;;;;;;;;;;23.30;57.30;;;;;;5062353;28;19928;-75
2022/08/26 08:42:31;;;;;;;;;;;23.30;57.40;;;;;;5064713;28;19935;-76
2022/08/26 08:44:59;;;;;;;;;;;23.40;57.30;;;;;;5057425;28;20755;-76
2022/08/26 08:47:29;;;;;;;;;;;23.40;57.20;;;;;;5056917;28;19936;-76
2022/08/26 08:49:59;;;;;;;;;;;23.40;57.20;;;;;;5059568;28;19961;-76
2022/08/26 08:52:27;;;;;;;;;;;23.40;56.90;;;;;;5059547;28;19928;-75
2022/08/26 08:54:55;;;;;;;;;;;23.40;56.80;;;;;;5059126;28;19936;-76
2022/08/26 08:57:26;;;;;;;;;;;23.50;56.70;;;;;;5058854;28;20220;-76
2022/08/26 08:59:55;;;;;;;;;;;23.50;56.60;;;;;;5057739;28;19929;-76
2022/08/26 09:02:25;;;;;;;;;;;23.60;56.60;;;;;;5060637;28;19929;-76
2022/08/26 09:05:07;;;;;;;;;;;23.60;56.50;;;;;;5056583;28;20419;-76
2022/08/26 09:07:37;;;;;;;;;;;23.60;56.50;;;;;;5059522;28;19932;-76
2022/08/26 09:10:11;;;;;;;;;;;23.70;56.50;;;;;;5055053;28;19928;-75
2022/08/26 09:12:38;;;;;;;;;;;23.70;56.30;;;;;;5057511;28;19933;-76
2022/08/26 09:15:07;;;;;;;;;;;23.80;56.30;;;;;;5058047;28;19933;-76
2022/08/26 09:17:39;;;;;;;;;;;23.80;56.10;;;;;;5058503;28;19939;-75
2022/08/26 09:20:10;;;;;;;;;;;23.90;56.20;;;;;;5062487;28;20319;-76
2022/08/26 09:22:38;;;;;;;;;;;24.00;56.00;;;;;;5055992;28;19967;-75
2022/08/26 09:25:06;;;;;;;;;;;24.00;55.90;;;;;;5058016;28;19935;-76
2022/08/26 09:27:37;;;;;;;;;;;24.00;55.90;;;;;;5058890;28;20392;-76
2022/08/26 09:30:06;;;;;;;;;;;24.20;56.00;;;;;;5054590;28;20116;-75
2022/08/26 09:32:34;;;;;;;;;;;24.20;55.80;;;;;;5058821;28;19932;-76
2022/08/26 09:35:02;;;;;;;;;;;24.30;55.70;;;;;;5052372;28;19935;-76
2022/08/26 09:37:34;;;;;;;;;;;24.30;55.50;;;;;;5053052;28;19939;-76
2022/08/26 09:40:12;;;;;;;;;;;24.40;55.40;;;;;;5056128;28;19928;-76
2022/08/26 09:42:39;;;;;;;;;;;24.50;55.20;;;;;;5063553;28;20451;-76
2022/08/26 09:45:09;;;;;;;;;;;24.50;55.00;;;;;;5058493;28;19987;-76
2022/08/26 09:47:37;;;;;;;;;;;24.60;54.80;;;;;;5057336;28;19994;-76
2022/08/26 09:50:05;;;;;;;;;;;24.70;54.70;;;;;;5062537;28;20014;-76
2022/08/26 09:52:32;;;;;;;;;;;24.70;54.60;;;;;;5060239;28;19933;-76
2022/08/26 09:55:05;;;;;;;;;;;24.80;54.60;;;;;;5059291;28;19928;-76
2022/08/26 09:57:34;;;;;;;;;;;24.90;54.40;;;;;;5053282;28;19929;-77
2022/08/26 10:00:01;;;;;;;;;;;24.90;54.20;;;;;;5058162;28;19928;-75
2022/08/26 10:02:41;;;;;;;;;;;25.00;54.10;;;;;;5055814;28;19928;-76
2022/08/26 10:05:10;;;;;;;;;;;25.10;54.00;;;;;;5061805;28;19928;-76
2022/08/26 10:07:39;;;;;;;;;;;25.10;53.90;;;;;;5059637;28;19928;-75
2022/08/26 10:10:08;;;;;;;;;;;25.20;53.90;;;;;;5055032;28;19964;-76
2022/08/26 10:12:39;;;;;;;;;;;25.30;53.80;;;;;;5057294;28;19978;-76
2022/08/26 10:15:08;;;;;;;;;;;25.30;53.60;;;;;;5053101;28;19963;-75
2022/08/26 10:17:37;;;;;;;;;;;25.40;53.60;;;;;;5061243;28;20050;-76
2022/08/26 10:20:07;;;;;;;;;;;25.50;53.50;;;;;;5058364;28;19929;-75
2022/08/26 10:22:38;;;;;;;;;;;25.60;53.40;;;;;;5060416;28;19935;-75
2022/08/26 10:25:06;;;;;;;;;;;25.60;53.20;;;;;;5060036;28;20728;-76
2022/08/26 10:27:36;;;;;;;;;;;25.60;53.10;;;;;;5058545;28;20453;-76
2022/08/26 10:30:06;;;;;;;;;;;25.70;53.00;;;;;;5061644;28;19932;-75
2022/08/26 10:32:35;;;;;;;;;;;25.80;53.00;;;;;;5058484;28;19929;-76
2022/08/26 10:35:01;;;;;;;;;;;25.90;53.00;;;;;;5061677;28;19928;-76
2022/08/26 10:37:32;;;;;;;;;;;25.90;52.80;;;;;;5056833;28;19936;-76
2022/08/26 10:40:01;;;;;;;;;;;26.00;52.70;;;;;;5060408;28;19960;-76
2022/08/26 10:42:30;;;;;;;;;;;26.10;52.70;;;;;;5059047;28;19928;-76
2022/08/26 10:44:58;;;;;;;;;;;26.20;52.60;;;;;;5057647;28;20729;-76
2022/08/26 10:47:28;;;;;;;;;;;26.30;52.50;;;;;;5054782;28;19936;-76
2022/08/26 10:49:55;;;;;;;;;;;26.30;52.40;;;;;;5052500;28;19982;-76
2022/08/26 10:52:28;;;;;;;;;;;26.40;52.30;;;;;;5062428;28;19962;-76
2022/08/26 10:54:59;;;;;;;;;;;26.50;52.20;;;;;;5054052;28;20039;-75
2022/08/26 10:57:30;;;;;;;;;;;26.50;52.00;;;;;;5054597;28;19960;-76
2022/08/26 11:01:40;;;;;;;;;;;26.60;52.00;;;;;;5053716;28;19932;-76
2022/08/26 11:02:51;;;;;;;;;;;26.70;51.80;;;;;;5050808;28;19932;-77
2022/08/26 11:05:20;;;;;;;;;;;26.80;51.70;;;;;;5050980;28;19982;-76
2022/08/26 11:07:51;;;;;;;;;;;26.90;51.60;;;;;;5058735;28;20308;-77
2022/08/26 11:10:36;;;;;;;;;;;27.00;51.40;;;;;;5053884;28;19935;-76
2022/08/26 11:13:03;;;;;;;;;;;27.10;51.40;;;;;;5061019;28;19933;-76
2022/08/26 11:15:49;;;;;;;;;;;27.20;50.70;;;;;;5053106;28;20575;-76
2022/08/26 11:18:35;;;;;;;;;;;27.20;51.00;;;;;;5051968;28;19932;-76
2022/08/26 11:21:02;;;;;;;;;;;27.30;50.80;;;;;;5050409;28;19928;-77
2022/08/26 11:23:46;;;;;;;;;;;27.40;50.70;;;;;;5055428;28;19928;-76
2022/08/26 11:26:14;;;;;;;;;;;27.40;50.70;;;;;;5054838;28;19976;-77
2022/08/26 11:28:42;;;;;;;;;;;27.50;50.50;;;;;;5058913;28;19929;-77
2022/08/26 11:31:10;;;;;;;;;;;27.60;50.40;;;;;;5050111;28;19929;-76
2022/08/26 11:33:55;;;;;;;;;;;27.70;50.40;;;;;;5054687;28;19933;-76
2022/08/26 11:36:41;;;;;;;;;;;27.70;50.30;;;;;;5047023;28;20343;-76
2022/08/26 11:39:15;;;;;;;;;;;27.80;50.20;;;;;;5054277;28;19929;-76
2022/08/26 11:41:43;;;;;;;;;;;27.90;50.10;;;;;;5050200;28;20385;-78
2022/08/26 11:44:09;;;;;;;;;;;28.00;50.00;;;;;;5061292;28;19936;-77
2022/08/26 11:46:36;;;;;;;;;;;28.10;49.70;;;;;;5062895;28;20384;-78
2022/08/26 11:49:04;;;;;;;;;;;28.90;48.10;;;;;;5058967;28;19960;-76
2022/08/26 11:51:31;;;;;;;;;;;29.80;46.40;;;;;;5058972;28;19982;-76
2022/08/26 11:54:10;;;;;;;;;;;30.50;45.10;;;;;;5058041;28;19928;-76
2022/08/26 11:56:37;;;;;;;;;;;30.60;45.00;;;;;;5056666;28;20751;-77
2022/08/26 11:59:07;;;;;;;;;;;30.50;45.00;;;;;;5059870;28;19928;-78
2022/08/26 12:01:35;;;;;;;;;;;30.20;45.50;;;;;;5058273;28;19924;-76
2022/08/26 12:04:03;;;;;;;;;;;30.10;45.90;;;;;;5058795;28;19935;-76
2022/08/26 12:06:30;;;;;;;;;;;29.90;46.30;;;;;;5061203;28;19924;-77
2022/08/26 12:08:58;;;;;;;;;;;29.80;46.60;;;;;;5059297;28;19928;-75
2022/08/26 12:11:27;;;;;;;;;;;29.70;46.80;;;;;;5058525;28;20017;-74
2022/08/26 12:13:54;;;;;;;;;;;29.60;46.90;;;;;;5066892;28;19932;-75
2022/08/26 12:16:22;;;;;;;;;;;29.60;47.10;;;;;;5062246;28;19965;-77
2022/08/26 12:18:49;;;;;;;;;;;29.60;47.00;;;;;;5057852;28;20077;-76
2022/08/26 12:21:21;;;;;;;;;;;29.60;47.10;;;;;;5057156;28;19979;-76
2022/08/26 12:23:48;;;;;;;;;;;29.60;46.90;;;;;;5060296;28;19928;-77
2022/08/26 12:26:21;;;;;;;;;;;29.60;46.80;;;;;;5060741;28;20509;-76
2022/08/26 12:28:51;;;;;;;;;;;29.60;46.90;;;;;;5056856;28;20446;-76
2022/08/26 12:31:26;;;;;;;;;;;29.70;46.80;;;;;;5058953;28;19950;-77
2022/08/26 12:33:53;;;;;;;;;;;29.70;46.90;;;;;;5065238;28;20015;-77
2022/08/26 12:36:21;;;;;;;;;;;29.70;46.80;;;;;;5060269;28;19928;-77
2022/08/26 12:38:48;;;;;;;;;;;29.70;46.60;;;;;;5060119;28;19928;-76
2022/08/26 12:41:30;;;;;;;;;;;29.80;46.30;;;;;;5063731;28;19929;-76
2022/08/26 12:43:58;;;;;;;;;;;29.80;46.10;;;;;;5064098;28;19928;-76
2022/08/26 12:46:27;;;;;;;;;;;29.90;46.40;;;;;;5052258;28;19936;-77
2022/08/26 12:48:53;;;;;;;;;;;29.90;46.40;;;;;;5062189;28;19935;-77
2022/08/26 12:51:23;;;;;;;;;;;30.00;46.50;;;;;;5063966;28;20388;-77
2022/08/26 12:53:49;;;;;;;;;;;30.10;46.30;;;;;;5055273;28;19928;-78
2022/08/26 12:56:21;;;;;;;;;;;30.10;46.30;;;;;;5064416;28;20346;-76
2022/08/26 12:59:02;;;;;;;;;;;30.20;46.30;;;;;;5062663;28;19936;-78
2022/08/26 13:01:35;;;;;;;;;;;30.20;45.90;;;;;;5060369;28;19932;-76
2022/08/26 13:04:01;;;;;;;;;;;30.30;45.90;;;;;;5061292;28;19936;-77
2022/08/26 13:06:29;;;;;;;;;;;30.30;45.60;;;;;;5059858;28;19935;-77
2022/08/26 13:08:57;;;;;;;;;;;30.30;45.30;;;;;;5057125;28;19929;-76
2022/08/26 13:11:25;;;;;;;;;;;30.40;45.30;;;;;;5058980;28;19928;-77
2022/08/26 13:13:52;;;;;;;;;;;30.40;45.60;;;;;;5058620;28;19935;-77
2022/08/26 13:16:20;;;;;;;;;;;30.50;45.20;;;;;;5059183;28;19932;-78
2022/08/26 13:18:47;;;;;;;;;;;30.50;45.00;;;;;;5051378;28;20315;-77
2022/08/26 13:21:16;;;;;;;;;;;30.50;44.90;;;;;;5055299;28;19929;-79
2022/08/26 13:23:43;;;;;;;;;;;30.50;44.70;;;;;;5058877;28;19928;-77
2022/08/26 13:26:10;;;;;;;;;;;30.50;44.50;;;;;;5059885;28;19929;-78
2022/08/26 13:28:36;;;;;;;;;;;30.50;44.70;;;;;;5057856;28;19936;-76
2022/08/26 13:31:03;;;;;;;;;;;30.50;44.80;;;;;;5060710;28;19932;-76
2022/08/26 13:33:32;;;;;;;;;;;30.50;44.60;;;;;;5057615;28;20712;-74
2022/08/26 13:35:58;;;;;;;;;;;30.60;43.90;;;;;;5058051;28;19932;-73
2022/08/26 13:38:25;;;;;;;;;;;30.60;44.50;;;;;;5052243;28;20009;-75
2022/08/26 13:40:51;;;;;;;;;;;30.60;44.90;;;;;;5049947;28;19935;-74
2022/08/26 13:43:18;;;;;;;;;;;30.70;44.70;;;;;;5062789;28;19936;-74
2022/08/26 13:45:48;;;;;;;;;;;30.70;44.00;;;;;;5059592;28;19928;-74
2022/08/26 13:48:15;;;;;;;;;;;30.70;43.90;;;;;;5055557;28;19929;-74
2022/08/26 13:50:43;;;;;;;;;;;30.80;43.90;;;;;;5057070;28;19944;-74
2022/08/26 13:53:10;;;;;;;;;;;30.90;44.00;;;;;;5059165;28;20550;-71
2022/08/26 13:55:36;;;;;;;;;;;30.90;43.00;;;;;;5055158;28;20000;-71
2022/08/26 13:58:03;;;;;;;;;;;31.00;43.20;;;;;;5054162;28;20362;-71
2022/08/26 14:00:32;;;;;;;;;;;31.00;43.80;;;;;;5051931;28;22486;-71
2022/08/26 14:02:59;;;;;;;;;;;31.10;42.90;;;;;;5056677;28;19963;-72
2022/08/26 14:05:25;;;;;;;;;;;31.10;42.90;;;;;;5058350;28;19929;-71
2022/08/26 14:07:56;;;;;;;;;;;31.20;43.50;;;;;;5061195;28;19932;-71
2022/08/26 14:10:22;;;;;;;;;;;31.30;42.80;;;;;;5053209;28;19932;-70
2022/08/26 14:12:49;;;;;;;;;;;31.30;42.70;;;;;;5056554;28;19928;-71
2022/08/26 14:15:17;;;;;;;;;;;31.40;42.70;;;;;;5057265;28;19955;-71
2022/08/26 14:17:44;;;;;;;;;;;31.40;42.20;;;;;;5053370;28;20328;-71
2022/08/26 14:20:13;;;;;;;;;;;31.50;42.70;;;;;;5054695;28;19972;-71
2022/08/26 14:22:41;;;;;;;;;;;31.50;42.70;;;;;;5049439;28;19924;-79
2022/08/26 14:25:10;;;;;;;;;;;31.60;42.20;;;;;;5051913;28;20435;-77
2022/08/26 14:27:36;;;;;;;;;;;31.70;40.50;;;;;;5058203;28;20414;-80